createdAt,value
2022-07-30T00:02:05.015Z,11.85
2022-07-30T00:04:32.657Z,11.27
2022-07-30T00:07:01.217Z,9.02
2022-07-30T00:09:29.245Z,10.20
2022-07-30T00:12:01.894Z,11.23
2022-07-30T00:14:30.771Z,9.63
2022-07-30T00:16:58.594Z,9.07
2022-07-30T00:19:26.395Z,11.57
2022-07-30T00:21:57.285Z,13.18
2022-07-30T00:24:24.837Z,12.43
2022-07-30T00:26:52.717Z,13.98
2022-07-30T00:29:20.717Z,13.48
2022-07-30T00:31:48.322Z,13.38
2022-07-30T00:34:15.942Z,13.80
2022-07-30T00:36:43.851Z,14.80
2022-07-30T00:39:11.383Z,13.00
2022-07-30T00:41:59.287Z,14.15
2022-07-30T00:44:27.465Z,12.82
2022-07-30T00:46:55.489Z,12.82
2022-07-30T00:49:23.539Z,14.02
2022-07-30T00:51:52.125Z,15.38
2022-07-30T00:54:21.372Z,9.90
2022-07-30T00:56:49.271Z,10.77
2022-07-30T00:59:17.289Z,9.82
2022-07-30T01:01:44.886Z,11.75
2022-07-30T01:04:12.733Z,10.20
2022-07-30T01:06:40.593Z,8.85
2022-07-30T01:09:08.518Z,10.18
2022-07-30T01:11:40.675Z,11.60
2022-07-30T01:14:09.378Z,11.50
2022-07-30T01:16:38.056Z,10.82
2022-07-30T01:19:27.686Z,9.75
2022-07-30T01:22:01.433Z,9.52
2022-07-30T01:24:39.286Z,11.75
2022-07-30T01:27:08.053Z,11.60
2022-07-30T01:29:35.875Z,12.15
2022-07-30T01:32:06.205Z,14.57
2022-07-30T01:34:35.414Z,12.63
2022-07-30T01:37:04.760Z,9.55
2022-07-30T01:39:32.779Z,8.40
2022-07-30T01:42:05.214Z,11.93
2022-07-30T01:44:32.929Z,10.20
2022-07-30T01:47:02.064Z,12.40
2022-07-30T01:49:30.367Z,9.82
2022-07-30T01:51:59.202Z,11.07
2022-07-30T01:54:27.623Z,12.23
2022-07-30T01:56:57.779Z,13.18
2022-07-30T01:59:25.882Z,10.23
2022-07-30T02:01:53.621Z,11.77
2022-07-30T02:04:21.701Z,8.80
2022-07-30T02:06:59.880Z,17.67
2022-07-30T02:09:30.552Z,10.10
2022-07-30T02:12:28.629Z,15.27
2022-07-30T02:15:17.507Z,12.10
2022-07-30T02:17:57.044Z,10.77
2022-07-30T02:20:28.311Z,9.73
2022-07-30T02:23:00.187Z,10.82
2022-07-30T02:25:28.252Z,9.65
2022-07-30T02:28:01.230Z,10.98
2022-07-30T02:30:33.764Z,9.23
2022-07-30T02:33:10.652Z,10.45
2022-07-30T02:35:38.980Z,10.57
2022-07-30T02:38:07.384Z,9.45
2022-07-30T02:40:34.918Z,11.65
2022-07-30T02:43:02.928Z,11.15
2022-07-30T02:45:31.460Z,13.98
2022-07-30T02:48:01.982Z,11.13
2022-07-30T02:50:31.177Z,13.75
2022-07-30T02:53:00.149Z,10.52
2022-07-30T02:55:28.738Z,12.32
2022-07-30T02:57:57.241Z,12.65
2022-07-30T03:00:25.136Z,10.68
2022-07-30T03:02:56.865Z,14.15
2022-07-30T03:05:26.398Z,12.43
2022-07-30T03:07:55.840Z,17.17
2022-07-30T03:10:25.018Z,11.95
2022-07-30T03:12:53.486Z,12.57
2022-07-30T03:15:21.179Z,11.95
2022-07-30T03:17:51.195Z,10.10
2022-07-30T03:20:20.649Z,11.85
2022-07-30T03:22:52.690Z,10.23
2022-07-30T03:25:22.228Z,12.32
2022-07-30T03:27:52.603Z,12.60
2022-07-30T03:30:20.245Z,9.27
2022-07-30T03:32:48.479Z,12.02
2022-07-30T03:35:16.993Z,12.93
2022-07-30T03:37:47.407Z,11.13
2022-07-30T03:40:15.928Z,11.68
2022-07-30T03:42:45.468Z,10.20
2022-07-30T03:45:16.029Z,11.65
2022-07-30T03:47:44.712Z,8.15
2022-07-30T03:50:15.105Z,12.20
2022-07-30T03:52:43.802Z,9.25
2022-07-30T03:55:16.291Z,11.48
2022-07-30T03:57:47.357Z,8.27
2022-07-30T04:00:15.788Z,9.20
2022-07-30T04:02:49.633Z,11.15
2022-07-30T04:05:41.663Z,11.13
2022-07-30T04:08:11.832Z,11.52
2022-07-30T04:10:40.140Z,12.05
2022-07-30T04:13:26.567Z,12.25
2022-07-30T04:16:40.050Z,15.25
2022-07-30T04:18:45.045Z,11.35
2022-07-30T04:21:17.316Z,10.60
2022-07-30T04:24:01.834Z,10.75
2022-07-30T04:26:33.452Z,13.45
2022-07-30T04:29:01.696Z,11.77
2022-07-30T04:31:30.495Z,12.13
2022-07-30T04:34:05.854Z,16.98
2022-07-30T04:36:40.239Z,13.13
2022-07-30T04:39:08.330Z,15.07
2022-07-30T04:41:48.605Z,13.55
2022-07-30T04:44:39.136Z,11.45
2022-07-30T04:47:27.708Z,11.25
2022-07-30T04:50:14.879Z,15.35
2022-07-30T04:52:44.565Z,12.10
2022-07-30T04:55:15.920Z,12.18
2022-07-30T04:57:47.463Z,13.02
2022-07-30T05:00:15.959Z,11.48
2022-07-30T05:02:44.156Z,14.40
2022-07-30T05:05:12.914Z,13.55
2022-07-30T05:07:41.936Z,12.20
2022-07-30T05:10:11.579Z,13.05
2022-07-30T05:12:39.972Z,12.32
2022-07-30T05:15:09.120Z,13.52
2022-07-30T05:17:37.230Z,16.05
2022-07-30T05:20:07.603Z,10.70
2022-07-30T05:22:53.105Z,14.82
2022-07-30T05:25:22.475Z,11.23
2022-07-30T05:27:52.695Z,12.18
2022-07-30T05:30:22.251Z,9.63
2022-07-30T05:32:57.323Z,10.18
2022-07-30T05:35:25.885Z,10.93
2022-07-30T05:37:54.742Z,12.60
2022-07-30T05:40:22.393Z,14.43
2022-07-30T05:43:05.208Z,12.98
2022-07-30T05:45:32.976Z,9.82
2022-07-30T05:48:00.618Z,15.35
2022-07-30T05:50:28.614Z,14.85
2022-07-30T05:52:58.404Z,10.68
2022-07-30T05:55:44.822Z,12.40
2022-07-30T05:58:21.497Z,12.05
2022-07-30T06:00:49.814Z,10.25
2022-07-30T06:03:18.511Z,14.43
2022-07-30T06:06:05.344Z,14.85
2022-07-30T06:08:33.172Z,10.13
2022-07-30T06:11:01.073Z,11.35
2022-07-30T06:13:28.967Z,10.32
2022-07-30T06:15:56.805Z,11.32
2022-07-30T06:18:24.476Z,11.35
2022-07-30T06:20:54.446Z,13.32
2022-07-30T06:23:47.106Z,11.20
2022-07-30T06:26:33.489Z,11.48
2022-07-30T06:29:20.862Z,10.02
2022-07-30T06:31:48.942Z,10.32
2022-07-30T06:34:16.573Z,8.48
2022-07-30T06:36:44.707Z,10.73
2022-07-30T06:39:55.794Z,11.55
2022-07-30T06:42:32.723Z,10.60
2022-07-30T06:45:31.144Z,12.70
2022-07-30T06:48:15.388Z,11.30
2022-07-30T06:50:43.237Z,11.55
2022-07-30T06:53:11.451Z,10.63
2022-07-30T06:56:05.134Z,7.82
2022-07-30T06:58:43.069Z,12.25
2022-07-30T07:01:29.428Z,10.13
2022-07-30T07:03:59.370Z,11.07
2022-07-30T07:06:27.160Z,10.93
2022-07-30T07:08:55.680Z,9.55
2022-07-30T07:11:33.035Z,9.65
2022-07-30T07:14:23.522Z,10.10
2022-07-30T07:16:51.196Z,9.00
2022-07-30T07:20:00.131Z,12.77
2022-07-30T07:22:27.658Z,11.35
2022-07-30T07:24:55.458Z,8.02
2022-07-30T07:27:27.125Z,10.48
2022-07-30T07:30:01.837Z,10.38
2022-07-30T07:32:35.872Z,8.60
2022-07-30T07:35:04.767Z,9.35
2022-07-30T07:37:33.922Z,9.98
2022-07-30T07:40:01.569Z,10.00
2022-07-30T07:42:32.405Z,9.00
2022-07-30T07:44:59.903Z,9.38
2022-07-30T07:47:31.985Z,13.50
2022-07-30T07:50:11.512Z,10.90
2022-07-30T07:52:39.188Z,12.57
2022-07-30T07:55:07.438Z,9.75
2022-07-30T07:57:40.290Z,9.38
2022-07-30T08:00:09.818Z,10.43
2022-07-30T08:02:47.601Z,15.27
2022-07-30T08:05:17.029Z,10.57
2022-07-30T08:07:47.751Z,10.27
2022-07-30T08:10:34.087Z,10.70
2022-07-30T08:13:51.614Z,8.73
2022-07-30T08:16:39.415Z,22.55
2022-07-30T08:19:27.429Z,16.17
2022-07-30T08:22:13.735Z,8.40
2022-07-30T08:24:41.815Z,9.23
2022-07-30T08:27:09.583Z,9.90
2022-07-30T08:29:37.660Z,6.70
2022-07-30T08:32:06.270Z,8.15
2022-07-30T08:37:04.740Z,6.13
2022-07-30T08:39:32.533Z,8.18
2022-07-30T08:42:03.260Z,6.32
2022-07-30T08:44:31.202Z,6.35
2022-07-30T08:47:00.778Z,6.80
2022-07-30T08:49:49.003Z,5.53
2022-07-30T08:52:19.527Z,6.95
2022-07-30T08:54:56.377Z,6.68
2022-07-30T08:57:24.388Z,6.10
2022-07-30T08:59:59.082Z,5.75
2022-07-30T09:02:31.566Z,6.60
2022-07-30T09:05:04.418Z,5.15
2022-07-30T09:07:33.775Z,9.07
2022-07-30T09:10:03.067Z,8.73
2022-07-30T09:12:34.978Z,8.23
2022-07-30T09:15:06.972Z,9.00
2022-07-30T09:17:48.094Z,8.95
2022-07-30T09:20:16.280Z,9.77
2022-07-30T09:22:45.237Z,8.82
2022-07-30T09:28:32.999Z,11.07
2022-07-30T09:31:17.357Z,8.30
2022-07-30T09:34:03.813Z,9.60
2022-07-30T09:37:04.704Z,20.80
2022-07-30T09:39:59.204Z,12.68
2022-07-30T09:42:46.300Z,20.75
2022-07-30T09:45:16.163Z,14.25
2022-07-30T09:47:48.548Z,13.07
2022-07-30T09:53:09.487Z,14.05
2022-07-30T09:55:42.184Z,12.43
2022-07-30T09:58:13.029Z,10.85
2022-07-30T10:00:59.488Z,9.73
2022-07-30T10:03:47.904Z,6.60
2022-07-30T10:06:37.816Z,6.25
2022-07-30T10:09:25.255Z,9.60
2022-07-30T10:11:56.063Z,6.85
2022-07-30T10:14:30.781Z,6.88
2022-07-30T10:17:00.871Z,8.75
2022-07-30T10:19:40.346Z,6.82
2022-07-30T10:22:28.390Z,9.00
2022-07-30T10:25:18.825Z,7.22
2022-07-30T10:28:15.274Z,7.78
2022-07-30T10:30:45.209Z,8.25
2022-07-30T10:33:34.890Z,7.75
2022-07-30T10:36:02.769Z,12.02
2022-07-30T10:38:39.460Z,9.23
2022-07-30T10:41:09.846Z,10.95
2022-07-30T10:44:05.118Z,12.43
2022-07-30T10:46:39.058Z,10.57
2022-07-30T10:49:19.075Z,8.68
2022-07-30T10:51:47.324Z,12.43
2022-07-30T10:54:39.764Z,9.75
2022-07-30T10:57:14.867Z,13.88
2022-07-30T10:59:55.449Z,14.90
2022-07-30T11:02:29.301Z,16.45
2022-07-30T11:05:17.451Z,14.80
2022-07-30T11:07:47.243Z,18.77
2022-07-30T11:10:33.971Z,18.52
2022-07-30T11:13:01.830Z,19.23
2022-07-30T11:15:48.337Z,21.50
2022-07-30T11:18:16.249Z,30.52
2022-07-30T11:20:48.780Z,24.45
2022-07-30T11:23:19.747Z,23.42
2022-07-30T11:25:50.364Z,21.57
2022-07-30T11:28:38.194Z,23.05
2022-07-30T11:31:37.204Z,28.15
2022-07-30T11:34:25.685Z,21.35
2022-07-30T11:37:19.173Z,26.13
2022-07-30T11:40:11.021Z,24.70
2022-07-30T11:42:39.906Z,28.58
2022-07-30T11:45:16.882Z,27.70
2022-07-30T11:47:45.483Z,19.58
2022-07-30T11:50:20.069Z,22.63
2022-07-30T11:52:59.151Z,26.17
2022-07-30T11:55:28.842Z,20.23
2022-07-30T11:57:56.740Z,18.98
2022-07-30T12:00:24.714Z,20.88
2022-07-30T12:02:52.845Z,24.42
2022-07-30T12:05:25.223Z,22.35
2022-07-30T12:07:57.262Z,17.50
2022-07-30T12:10:27.453Z,15.23
2022-07-30T12:13:07.912Z,19.08
2022-07-30T12:15:37.509Z,13.95
2022-07-30T12:18:25.207Z,16.73
2022-07-30T12:21:00.637Z,15.13
2022-07-30T12:23:28.845Z,17.50
2022-07-30T12:25:57.047Z,16.33
2022-07-30T12:28:27.146Z,14.70
2022-07-30T12:30:55.449Z,17.90
2022-07-30T12:33:23.748Z,15.05
2022-07-30T12:35:53.339Z,20.40
2022-07-30T12:38:22.146Z,15.35
2022-07-30T12:41:03.345Z,18.15
2022-07-30T12:43:46.489Z,18.00
2022-07-30T12:46:24.633Z,13.98
2022-07-30T12:48:55.422Z,20.40
2022-07-30T12:51:24.293Z,20.65
2022-07-30T12:53:52.916Z,18.60
2022-07-30T12:56:22.186Z,17.67
2022-07-30T12:58:50.132Z,16.63
2022-07-30T13:01:18.508Z,17.85
2022-07-30T13:03:46.433Z,19.35
2022-07-30T13:06:15.512Z,20.65
2022-07-30T13:08:50.669Z,17.88
2022-07-30T13:11:19.564Z,18.67
2022-07-30T13:13:47.505Z,19.80
2022-07-30T13:16:15.636Z,18.30
2022-07-30T13:18:43.473Z,15.38
2022-07-30T13:21:11.389Z,15.52
2022-07-30T13:23:41.572Z,14.20
2022-07-30T13:26:10.308Z,10.85
2022-07-30T13:28:38.339Z,10.40
2022-07-30T13:31:07.557Z,8.65
2022-07-30T13:33:39.061Z,7.97
2022-07-30T13:36:07.703Z,8.98
2022-07-30T13:38:35.356Z,9.48
2022-07-30T13:41:04.485Z,9.10
2022-07-30T13:43:34.069Z,9.20
2022-07-30T13:46:05.502Z,9.35
2022-07-30T13:51:02.413Z,6.65
2022-07-30T13:53:30.274Z,7.63
2022-07-30T13:56:01.871Z,12.45
2022-07-30T14:01:03.735Z,7.70
2022-07-30T14:03:31.426Z,5.63
2022-07-30T14:06:10.512Z,5.82
2022-07-30T14:08:40.020Z,6.05
2022-07-30T14:11:08.294Z,8.68
2022-07-30T14:13:35.921Z,6.13
2022-07-30T14:16:03.665Z,4.90
2022-07-30T14:18:31.321Z,4.80
2022-07-30T14:20:59.110Z,5.40
2022-07-30T14:23:27.089Z,6.00
2022-07-30T14:25:54.723Z,5.60
2022-07-30T14:28:22.392Z,4.97
2022-07-30T14:30:50.397Z,5.25
2022-07-30T14:33:17.989Z,5.95
2022-07-30T14:35:45.521Z,4.45
2022-07-30T14:38:13.352Z,4.47
2022-07-30T14:40:40.908Z,5.25
2022-07-30T14:43:08.479Z,4.18
2022-07-30T14:45:36.637Z,4.63
2022-07-30T14:48:04.277Z,5.32
2022-07-30T14:50:32.009Z,5.50
2022-07-30T14:52:59.745Z,6.72
2022-07-30T14:55:27.769Z,5.05
2022-07-30T14:57:55.298Z,5.95
2022-07-30T15:00:24.323Z,5.95
2022-07-30T15:02:52.131Z,7.82
2022-07-30T15:05:19.752Z,4.60
2022-07-30T15:07:47.574Z,5.97
2022-07-30T15:10:15.656Z,5.70
2022-07-30T15:12:43.604Z,6.18
2022-07-30T15:15:12.627Z,5.75
2022-07-30T15:17:42.315Z,6.93
2022-07-30T15:20:10.757Z,6.80
2022-07-30T15:22:38.648Z,5.25
2022-07-30T15:25:07.002Z,6.68
2022-07-30T15:27:34.844Z,5.90
2022-07-30T15:30:02.758Z,7.22
2022-07-30T15:32:30.911Z,4.80
2022-07-30T15:34:58.814Z,7.00
2022-07-30T15:37:28.182Z,5.45
2022-07-30T15:39:55.733Z,7.70
2022-07-30T15:42:23.741Z,6.22
2022-07-30T15:45:15.262Z,4.80
2022-07-30T15:47:39.091Z,5.03
2022-07-30T15:50:07.792Z,5.47
2022-07-30T15:52:36.448Z,5.93
2022-07-30T15:55:04.953Z,7.80
2022-07-30T15:57:33.126Z,7.97
2022-07-30T16:00:00.879Z,13.02
2022-07-30T16:02:28.691Z,11.13
2022-07-30T16:04:56.428Z,17.75
2022-07-30T16:07:24.192Z,20.20
2022-07-30T16:09:51.754Z,16.88
2022-07-30T16:12:19.517Z,20.08
2022-07-30T16:14:47.474Z,22.00
2022-07-30T16:17:16.408Z,19.42
2022-07-30T16:19:44.765Z,20.70
2022-07-30T16:22:15.023Z,18.05
2022-07-30T16:24:52.044Z,20.35
2022-07-30T16:27:19.952Z,14.77
2022-07-30T16:29:47.549Z,21.58
2022-07-30T16:32:15.265Z,19.35
2022-07-30T16:34:42.844Z,20.52
2022-07-30T16:37:10.663Z,19.73
2022-07-30T16:39:38.683Z,17.48
2022-07-30T16:42:06.741Z,17.67
2022-07-30T16:44:36.135Z,19.70
2022-07-30T16:47:03.990Z,15.65
2022-07-30T16:49:33.696Z,16.00
2022-07-30T16:52:01.694Z,17.42
2022-07-30T16:54:29.700Z,15.45
2022-07-30T16:56:57.242Z,11.98
2022-07-30T16:59:24.832Z,16.27
2022-07-30T17:01:52.667Z,14.82
2022-07-30T17:04:20.273Z,11.52
2022-07-30T17:06:47.817Z,15.55
2022-07-30T17:09:15.856Z,12.73
2022-07-30T17:11:46.646Z,12.35
2022-07-30T17:14:15.892Z,15.73
2022-07-30T17:16:43.658Z,13.77
2022-07-30T17:19:11.292Z,11.05
2022-07-30T17:21:39.002Z,11.60
2022-07-30T17:24:11.459Z,10.40
2022-07-30T17:26:46.653Z,11.10
2022-07-30T17:29:15.516Z,11.77
2022-07-30T17:31:44.292Z,8.77
2022-07-30T17:34:13.861Z,20.33
2022-07-30T17:36:44.369Z,13.10
2022-07-30T17:40:18.885Z,12.82
2022-07-30T17:42:11.068Z,16.33
2022-07-30T17:44:41.145Z,18.55
2022-07-30T17:47:14.464Z,9.88
2022-07-30T17:49:44.443Z,11.32
2022-07-30T17:52:13.667Z,14.27
2022-07-30T17:54:41.326Z,10.68
2022-07-30T17:57:09.058Z,10.60
2022-07-30T17:59:38.062Z,25.67
2022-07-30T18:02:06.360Z,19.30
2022-07-30T18:04:34.951Z,15.35
2022-07-30T18:07:03.248Z,11.60
2022-07-30T18:09:39.505Z,16.95
2022-07-30T18:12:09.193Z,12.57
2022-07-30T18:14:40.908Z,10.98
2022-07-30T18:17:14.114Z,9.77
2022-07-30T18:19:42.294Z,12.55
2022-07-30T18:22:09.893Z,10.10
2022-07-30T18:24:40.283Z,11.35
2022-07-30T18:27:15.609Z,11.25
2022-07-30T18:29:43.394Z,13.45
2022-07-30T18:32:11.036Z,11.55
2022-07-30T18:34:40.152Z,11.82
2022-07-30T18:37:07.984Z,13.95
2022-07-30T18:39:35.611Z,12.18
2022-07-30T18:42:04.886Z,15.13
2022-07-30T18:44:33.305Z,15.98
2022-07-30T18:47:01.295Z,16.77
2022-07-30T18:49:37.747Z,16.45
2022-07-30T18:52:07.734Z,14.48
2022-07-30T18:54:40.438Z,16.43
2022-07-30T18:57:14.143Z,18.38
2022-07-30T18:59:42.894Z,21.67
2022-07-30T19:02:10.757Z,22.50
2022-07-30T19:04:38.417Z,20.15
2022-07-30T19:07:07.195Z,28.73
2022-07-30T19:09:35.170Z,22.83
2022-07-30T19:12:03.514Z,23.13
2022-07-30T19:14:31.392Z,26.08
2022-07-30T19:16:59.388Z,26.55
2022-07-30T19:19:28.019Z,27.65
2022-07-30T19:21:55.782Z,26.67
2022-07-30T19:24:23.780Z,28.40
2022-07-30T19:26:56.327Z,26.45
2022-07-30T19:29:24.335Z,30.85
2022-07-30T19:31:52.171Z,26.27
2022-07-30T19:34:19.851Z,30.42
2022-07-30T19:36:47.391Z,31.75
2022-07-30T19:39:21.830Z,27.92
2022-07-30T19:41:51.063Z,27.77
2022-07-30T19:44:19.436Z,24.70
2022-07-30T19:46:48.591Z,33.13
2022-07-30T19:49:17.333Z,27.92
2022-07-30T19:52:09.785Z,26.92
2022-07-30T19:54:36.796Z,26.20
2022-07-30T19:57:05.090Z,29.25
2022-07-30T20:03:53.212Z,26.30
2022-07-30T20:06:22.106Z,34.15
2022-07-30T20:08:51.447Z,29.73
2022-07-30T20:11:34.841Z,30.40
2022-07-30T20:14:04.841Z,24.95
2022-07-30T20:16:32.430Z,29.98
2022-07-30T20:18:59.939Z,31.60
2022-07-30T20:21:56.967Z,34.22
2022-07-30T20:24:19.416Z,31.27
2022-07-30T20:26:49.035Z,33.92
2022-07-30T20:29:19.425Z,33.15
2022-07-30T20:31:49.726Z,35.90
2022-07-30T20:34:23.365Z,28.17
2022-07-30T20:36:51.715Z,27.90
2022-07-30T20:39:21.822Z,29.08
2022-07-30T20:41:49.393Z,25.52
2022-07-30T20:44:23.605Z,27.48
2022-07-30T20:46:52.647Z,32.25
2022-07-30T20:49:24.201Z,35.35
2022-07-30T20:52:02.842Z,39.92
2022-07-30T20:54:30.648Z,38.38
2022-07-30T20:56:58.271Z,34.95
2022-07-30T20:59:26.960Z,39.90
2022-07-30T21:01:55.807Z,41.15
2022-07-30T21:04:25.878Z,43.72
2022-07-30T21:06:55.447Z,43.15
2022-07-30T21:09:23.408Z,40.97
2022-07-30T21:14:22.564Z,42.47
2022-07-30T21:19:40.725Z,48.58
2022-07-30T21:22:09.061Z,46.10
2022-07-30T21:24:36.855Z,35.03
2022-07-30T21:27:04.664Z,45.97
2022-07-30T21:29:32.451Z,43.72
2022-07-30T21:32:05.116Z,37.90
2022-07-30T21:34:36.006Z,33.30
2022-07-30T21:37:20.871Z,29.13
2022-07-30T21:39:51.975Z,34.95
2022-07-30T21:42:25.900Z,29.30
2022-07-30T21:44:58.134Z,39.22
2022-07-30T21:47:25.673Z,36.22
2022-07-30T21:49:54.800Z,34.45
2022-07-30T21:52:22.459Z,38.22
2022-07-30T21:54:51.929Z,34.38
2022-07-30T21:57:26.242Z,30.38
2022-07-30T21:59:55.114Z,33.90
2022-07-30T22:02:23.773Z,35.70
2022-07-30T22:04:52.354Z,33.80
2022-07-30T22:07:21.909Z,32.92
2022-07-30T22:09:50.048Z,37.85
2022-07-30T22:12:18.285Z,35.83
2022-07-30T22:14:48.705Z,33.53
2022-07-30T22:20:08.658Z,36.55
2022-07-30T22:22:42.493Z,27.75
2022-07-30T22:27:39.464Z,32.83
2022-07-30T22:30:08.107Z,35.10
2022-07-30T22:32:36.463Z,28.42
2022-07-30T22:35:07.314Z,26.70
2022-07-30T22:37:34.914Z,23.75
2022-07-30T22:40:06.702Z,25.42
2022-07-30T22:42:36.551Z,23.90
2022-07-30T22:45:17.334Z,20.23
2022-07-30T22:48:10.112Z,17.58
2022-07-30T22:50:40.185Z,16.13
2022-07-30T22:53:23.618Z,15.13
2022-07-30T22:55:56.492Z,16.92
2022-07-30T22:58:26.640Z,18.02
2022-07-30T23:00:54.299Z,16.60
2022-07-30T23:03:22.153Z,13.98
2022-07-30T23:05:55.097Z,10.95
2022-07-30T23:08:30.179Z,11.85
2022-07-30T23:10:59.889Z,9.18
2022-07-30T23:12:27.040Z,51.00
2022-07-30T23:12:31.225Z,34.55
2022-07-30T23:13:28.686Z,12.10
2022-07-30T23:15:56.471Z,10.70
2022-07-30T23:18:24.116Z,7.88
2022-07-30T23:20:51.904Z,10.65
2022-07-30T23:23:19.671Z,10.30
2022-07-30T23:25:47.263Z,9.20
2022-07-30T23:28:15.095Z,8.98
2022-07-30T23:30:42.612Z,10.18
2022-07-30T23:33:10.211Z,10.02
2022-07-30T23:35:38.374Z,11.27
2022-07-30T23:38:06.010Z,10.75
2022-07-30T23:40:33.575Z,9.13
2022-07-30T23:43:01.408Z,10.38
2022-07-30T23:45:28.979Z,10.80
2022-07-30T23:48:02.805Z,10.52
2022-07-30T23:50:32.415Z,7.55
2022-07-30T23:53:01.392Z,6.45
2022-07-30T23:55:29.519Z,9.75
2022-07-30T23:57:57.963Z,8.40
